createdAt,value
2019-05-20T00:03:03.133Z,22.49
2019-05-20T00:06:09.133Z,22.60
2019-05-20T00:09:15.022Z,22.60
2019-05-20T00:12:20.743Z,22.35
2019-05-20T00:15:26.412Z,22.34
2019-05-20T00:18:32.170Z,22.61
2019-05-20T00:21:37.940Z,22.57
2019-05-20T00:24:43.681Z,22.09
2019-05-20T00:27:49.527Z,22.10
2019-05-20T00:30:55.231Z,21.98
2019-05-20T00:34:00.914Z,21.92
2019-05-20T00:37:09.963Z,21.16
2019-05-20T00:40:15.866Z,21.23
2019-05-20T00:43:21.576Z,21.32
2019-05-20T00:46:27.259Z,21.31
2019-05-20T00:49:33.107Z,21.69
2019-05-20T00:52:38.926Z,21.01
2019-05-20T00:55:44.702Z,21.23
2019-05-20T00:58:50.414Z,20.89
2019-05-20T01:01:56.085Z,21.57
2019-05-20T01:05:01.775Z,21.87
2019-05-20T01:08:07.465Z,22.10
2019-05-20T01:11:13.187Z,22.08
2019-05-20T01:14:18.917Z,21.62
2019-05-20T01:17:24.663Z,21.35
2019-05-20T01:20:30.383Z,20.92
2019-05-20T01:23:36.037Z,20.59
2019-05-20T01:26:41.743Z,21.37
2019-05-20T01:29:47.494Z,21.48
2019-05-20T01:32:53.169Z,21.25
2019-05-20T01:35:58.908Z,21.04
2019-05-20T01:39:05.416Z,21.02
2019-05-20T01:42:11.196Z,20.86
2019-05-20T01:45:18.055Z,20.65
2019-05-20T01:48:23.744Z,20.84
2019-05-20T01:51:29.410Z,20.44
2019-05-20T01:54:35.070Z,20.73
2019-05-20T01:57:40.791Z,20.40
2019-05-20T02:00:46.541Z,20.43
2019-05-20T02:03:52.274Z,20.31
2019-05-20T02:07:01.344Z,20.55
2019-05-20T02:10:07.589Z,20.56
2019-05-20T02:13:13.329Z,20.66
2019-05-20T02:16:19.683Z,20.47
2019-05-20T02:19:25.354Z,20.56
2019-05-20T02:22:31.077Z,20.34
2019-05-20T02:25:36.897Z,20.39
2019-05-20T02:28:44.438Z,20.45
2019-05-20T02:31:50.204Z,20.52
2019-05-20T02:34:57.443Z,20.45
2019-05-20T02:38:03.454Z,20.48
2019-05-20T02:41:09.349Z,20.22
2019-05-20T02:44:17.589Z,20.25
2019-05-20T02:47:30.894Z,20.44
2019-05-20T02:50:39.322Z,20.59
2019-05-20T02:53:50.530Z,20.93
2019-05-20T02:56:57.486Z,21.05
2019-05-20T03:00:03.325Z,21.04
2019-05-20T03:03:10.747Z,21.29
2019-05-20T03:06:16.931Z,21.34
2019-05-20T03:09:22.607Z,21.06
2019-05-20T03:12:28.420Z,21.13
2019-05-20T03:15:34.116Z,20.95
2019-05-20T03:18:39.824Z,20.84
2019-05-20T03:21:45.479Z,21.19
2019-05-20T03:24:51.220Z,21.30
2019-05-20T03:27:56.906Z,21.40
2019-05-20T03:31:02.646Z,21.11
2019-05-20T03:34:08.487Z,21.23
2019-05-20T03:37:14.136Z,21.11
2019-05-20T03:40:19.841Z,21.13
2019-05-20T03:43:25.563Z,21.20
2019-05-20T03:46:31.334Z,21.04
2019-05-20T03:49:37.009Z,21.11
2019-05-20T03:52:42.741Z,21.04
2019-05-20T03:55:48.418Z,21.09
2019-05-20T03:58:54.111Z,21.08
2019-05-20T04:01:59.876Z,21.27
2019-05-20T04:05:05.883Z,21.18
2019-05-20T04:08:11.829Z,21.06
2019-05-20T04:11:17.535Z,21.12
2019-05-20T04:14:23.306Z,21.00
2019-05-20T04:17:28.969Z,20.97
2019-05-20T04:20:34.904Z,21.32
2019-05-20T04:23:41.003Z,21.43
2019-05-20T04:26:47.139Z,21.56
2019-05-20T04:29:52.820Z,21.54
2019-05-20T04:32:58.604Z,21.79
2019-05-20T04:36:04.372Z,21.85
2019-05-20T04:39:10.043Z,22.10
2019-05-20T04:42:15.726Z,22.07
2019-05-20T04:45:21.544Z,21.91
2019-05-20T04:48:27.204Z,21.70
2019-05-20T04:51:32.919Z,21.82
2019-05-20T04:54:38.626Z,21.88
2019-05-20T04:57:44.294Z,21.89
2019-05-20T05:00:57.532Z,22.19
2019-05-20T05:04:03.195Z,22.13
2019-05-20T05:07:08.981Z,22.51
2019-05-20T05:10:15.192Z,22.81
2019-05-20T05:13:21.751Z,23.06
2019-05-20T05:16:27.596Z,23.15
2019-05-20T05:19:33.549Z,23.17
2019-05-20T05:22:39.316Z,23.52
2019-05-20T05:25:45.273Z,23.73
2019-05-20T05:28:51.949Z,24.13
2019-05-20T05:31:57.779Z,24.10
2019-05-20T05:35:03.455Z,24.34
2019-05-20T05:38:09.349Z,24.29
2019-05-20T05:41:15.101Z,24.21
2019-05-20T05:44:20.787Z,24.31
2019-05-20T05:47:26.484Z,24.51
2019-05-20T05:50:36.749Z,24.81
2019-05-20T05:53:42.149Z,24.78
2019-05-20T05:56:47.889Z,24.80
2019-05-20T05:59:53.707Z,24.91
2019-05-20T06:02:59.365Z,24.91
2019-05-20T06:06:12.275Z,24.96
2019-05-20T06:09:12.653Z,25.57
2019-05-20T06:12:18.335Z,25.50
2019-05-20T06:15:24.875Z,25.83
2019-05-20T06:18:30.538Z,25.69
2019-05-20T06:21:36.272Z,25.68
2019-05-20T06:24:41.931Z,25.57
2019-05-20T06:27:47.658Z,25.11
2019-05-20T06:30:53.321Z,25.35
2019-05-20T06:33:59.246Z,25.40
2019-05-20T06:37:07.524Z,25.50
2019-05-20T06:40:13.617Z,25.45
2019-05-20T06:43:19.380Z,25.73
2019-05-20T06:46:27.963Z,25.95
2019-05-20T06:49:33.632Z,25.80
2019-05-20T06:52:39.335Z,26.15
2019-05-20T06:55:45.081Z,26.34
2019-05-20T06:58:50.813Z,26.37
2019-05-20T07:01:56.821Z,26.61
2019-05-20T07:05:03.671Z,26.88
2019-05-20T07:08:09.339Z,27.31
2019-05-20T07:11:15.073Z,27.65
2019-05-20T07:14:20.901Z,27.43
2019-05-20T07:17:29.548Z,27.66
2019-05-20T07:20:50.187Z,28.02
2019-05-20T07:23:57.243Z,28.41
2019-05-20T07:27:02.977Z,28.51
2019-05-20T07:30:09.121Z,28.45
2019-05-20T07:33:14.863Z,28.85
2019-05-20T07:36:25.945Z,28.19
2019-05-20T07:39:31.680Z,28.24
2019-05-20T07:42:37.413Z,28.49
2019-05-20T07:45:43.902Z,28.20
2019-05-20T07:48:50.492Z,28.26
2019-05-20T07:51:57.196Z,28.78
2019-05-20T07:55:03.868Z,28.72
2019-05-20T07:58:11.018Z,28.96
2019-05-20T08:01:17.236Z,29.18
2019-05-20T08:04:23.455Z,29.06
2019-05-20T08:07:49.875Z,29.51
2019-05-20T08:10:36.971Z,29.52
2019-05-20T08:13:42.844Z,29.72
2019-05-20T08:16:48.530Z,29.65
2019-05-20T08:19:54.219Z,29.17
2019-05-20T08:22:59.954Z,28.70
2019-05-20T08:26:05.709Z,28.82
2019-05-20T08:29:11.403Z,29.10
2019-05-20T08:32:17.058Z,29.14
2019-05-20T08:35:25.241Z,29.37
2019-05-20T08:38:30.921Z,29.85
2019-05-20T08:41:36.830Z,29.65
2019-05-20T08:44:42.690Z,29.80
2019-05-20T08:47:50.187Z,29.89
2019-05-20T08:50:55.987Z,29.62
2019-05-20T08:54:03.360Z,29.58
2019-05-20T08:57:09.092Z,29.31
2019-05-20T09:00:23.207Z,28.86
2019-05-20T09:03:30.485Z,29.12
2019-05-20T09:06:36.469Z,29.72
2019-05-20T09:09:42.287Z,29.60
2019-05-20T09:12:48.077Z,30.38
2019-05-20T09:15:54.835Z,30.76
2019-05-20T09:19:00.512Z,30.99
2019-05-20T09:22:06.236Z,30.45
2019-05-20T09:25:14.189Z,30.58
2019-05-20T09:28:20.443Z,29.11
2019-05-20T09:31:26.534Z,29.62
2019-05-20T09:34:32.569Z,30.31
2019-05-20T09:37:39.503Z,30.65
2019-05-20T09:40:47.791Z,30.02
2019-05-20T09:43:53.532Z,30.29
2019-05-20T09:46:59.246Z,30.22
2019-05-20T09:50:05.972Z,29.78
2019-05-20T09:53:11.829Z,29.30
2019-05-20T09:56:17.627Z,29.67
2019-05-20T09:59:23.465Z,29.60
2019-05-20T10:02:34.507Z,29.08
2019-05-20T10:05:37.632Z,29.06
2019-05-20T10:08:45.289Z,29.78
2019-05-20T10:11:51.643Z,29.96
2019-05-20T10:14:57.385Z,30.07
2019-05-20T10:18:03.277Z,29.88
2019-05-20T10:21:09.071Z,29.98
2019-05-20T10:24:14.768Z,30.66
2019-05-20T10:27:20.621Z,31.06
2019-05-20T10:30:26.494Z,31.09
2019-05-20T10:33:32.216Z,31.52
2019-05-20T10:36:37.880Z,31.50
2019-05-20T10:39:43.656Z,31.43
2019-05-20T10:42:49.470Z,31.83
2019-05-20T10:45:55.234Z,32.49
2019-05-20T10:49:02.135Z,32.36
2019-05-20T10:52:07.900Z,32.73
2019-05-20T10:55:13.716Z,31.91
2019-05-20T10:58:19.527Z,32.42
2019-05-20T11:01:25.266Z,32.72
2019-05-20T11:04:30.959Z,32.68
2019-05-20T11:07:36.867Z,32.78
2019-05-20T11:10:42.740Z,32.93
2019-05-20T11:13:48.461Z,32.69
2019-05-20T11:16:54.168Z,32.38
2019-05-20T11:19:59.866Z,32.21
2019-05-20T11:23:05.621Z,31.78
2019-05-20T11:26:11.412Z,31.12
2019-05-20T11:29:17.121Z,31.36
2019-05-20T11:32:22.860Z,30.91
2019-05-20T11:35:28.663Z,31.29
2019-05-20T11:38:34.587Z,31.46
2019-05-20T11:41:52.613Z,31.71
2019-05-20T11:44:47.876Z,31.38
2019-05-20T11:47:53.605Z,31.07
2019-05-20T11:50:59.284Z,30.56
2019-05-20T11:54:04.995Z,30.68
2019-05-20T11:57:10.672Z,31.17
2019-05-20T12:00:17.089Z,31.46
2019-05-20T12:03:22.775Z,31.59
2019-05-20T12:06:28.489Z,31.82
2019-05-20T12:09:48.300Z,32.19
2019-05-20T12:12:41.515Z,32.22
2019-05-20T12:15:47.217Z,31.85
2019-05-20T12:18:52.934Z,31.80
2019-05-20T12:21:58.665Z,31.93
2019-05-20T12:25:04.647Z,31.85
2019-05-20T12:28:10.695Z,32.33
2019-05-20T12:31:16.478Z,32.00
2019-05-20T12:34:22.309Z,31.61
2019-05-20T12:37:27.975Z,31.68
2019-05-20T12:40:33.879Z,31.82
2019-05-20T12:43:39.527Z,31.63
2019-05-20T12:46:45.246Z,31.65
2019-05-20T12:49:51.087Z,31.99
2019-05-20T12:52:56.781Z,32.03
2019-05-20T12:56:02.536Z,31.80
2019-05-20T12:59:08.273Z,31.11
2019-05-20T13:02:17.405Z,31.08
2019-05-20T13:05:23.297Z,30.90
2019-05-20T13:08:29.543Z,30.98
2019-05-20T13:11:38.962Z,31.30
2019-05-20T13:14:44.678Z,31.61
2019-05-20T13:17:50.999Z,31.81
2019-05-20T13:20:56.776Z,32.22
2019-05-20T13:24:02.448Z,31.93
2019-05-20T13:27:08.267Z,31.34
2019-05-20T13:30:14.691Z,31.01
2019-05-20T13:33:20.355Z,30.49
2019-05-20T13:36:26.058Z,30.53
2019-05-20T13:39:31.760Z,30.62
2019-05-20T13:42:37.613Z,31.20
2019-05-20T13:45:43.383Z,31.36
2019-05-20T13:48:50.421Z,31.35
2019-05-20T13:51:56.102Z,31.39
2019-05-20T13:55:01.816Z,31.62
2019-05-20T13:58:07.595Z,31.64
2019-05-20T14:01:13.335Z,31.51
2019-05-20T14:04:18.979Z,31.70
2019-05-20T14:07:24.781Z,31.88
2019-05-20T14:10:30.482Z,31.66
2019-05-20T14:13:36.163Z,31.13
2019-05-20T14:16:41.860Z,31.69
2019-05-20T14:19:47.632Z,31.06
2019-05-20T14:22:56.388Z,31.45
2019-05-20T14:26:02.219Z,31.25
2019-05-20T14:29:08.007Z,30.71
2019-05-20T14:32:13.696Z,30.28
2019-05-20T14:35:19.576Z,30.31
2019-05-20T14:38:25.419Z,30.38
2019-05-20T14:41:31.167Z,29.84
2019-05-20T14:44:36.840Z,29.46
2019-05-20T14:47:43.219Z,29.12
2019-05-20T14:50:51.009Z,28.40
2019-05-20T14:53:58.499Z,28.45
2019-05-20T14:57:05.980Z,28.50
2019-05-20T15:00:14.430Z,28.44
2019-05-20T15:03:21.577Z,28.81
2019-05-20T15:06:29.247Z,28.83
2019-05-20T15:09:36.049Z,28.79
2019-05-20T15:12:42.652Z,28.13
2019-05-20T15:15:48.817Z,27.97
2019-05-20T15:18:56.082Z,27.89
2019-05-20T15:22:04.118Z,27.47
2019-05-20T15:25:11.791Z,27.08
2019-05-20T15:28:18.096Z,26.96
2019-05-20T15:31:24.444Z,26.41
2019-05-20T15:34:32.189Z,26.18
2019-05-20T15:37:40.344Z,25.92
2019-05-20T15:40:46.877Z,25.50
2019-05-20T15:43:53.868Z,25.63
2019-05-20T15:47:00.791Z,25.33
2019-05-20T15:50:10.012Z,25.19
2019-05-20T15:53:42.178Z,25.10
2019-05-20T15:56:49.622Z,24.98
2019-05-20T15:59:55.447Z,24.83
2019-05-20T16:03:01.305Z,24.82
2019-05-20T16:06:07.147Z,25.11
2019-05-20T16:09:16.868Z,25.33
2019-05-20T16:12:20.384Z,25.37
2019-05-20T16:15:26.040Z,25.24
2019-05-20T16:18:31.701Z,25.13
2019-05-20T16:21:37.505Z,24.82
2019-05-20T16:24:45.328Z,24.46
2019-05-20T16:27:50.714Z,24.32
2019-05-20T16:30:56.373Z,24.32
2019-05-20T16:34:02.148Z,24.68
2019-05-20T16:37:07.915Z,24.84
2019-05-20T16:40:14.214Z,24.88
2019-05-20T16:43:20.034Z,24.92
2019-05-20T16:46:25.705Z,24.83
2019-05-20T16:49:31.426Z,24.57
2019-05-20T16:52:37.151Z,24.37
2019-05-20T16:55:42.885Z,24.54
2019-05-20T16:58:48.546Z,24.44
2019-05-20T17:01:54.247Z,24.41
2019-05-20T17:05:00.180Z,24.22
2019-05-20T17:08:06.283Z,24.12
2019-05-20T17:11:12.034Z,24.25
2019-05-20T17:14:21.383Z,24.31
2019-05-20T17:17:27.069Z,24.22
2019-05-20T17:20:32.760Z,24.09
2019-05-20T17:23:38.423Z,24.17
2019-05-20T17:26:44.182Z,24.00
2019-05-20T17:29:50.237Z,23.99
2019-05-20T17:32:55.919Z,24.05
2019-05-20T17:36:01.706Z,24.08
2019-05-20T17:39:08.528Z,23.71
2019-05-20T17:42:14.291Z,23.84
2019-05-20T17:45:20.208Z,23.74
2019-05-20T17:48:26.091Z,23.88
2019-05-20T17:51:33.318Z,23.83
2019-05-20T17:54:39.088Z,23.86
2019-05-20T17:57:44.782Z,23.89
2019-05-20T18:00:50.645Z,23.89
2019-05-20T18:03:56.380Z,23.12
2019-05-20T18:07:02.149Z,23.45
2019-05-20T18:10:08.968Z,23.26
2019-05-20T18:13:14.750Z,23.22
2019-05-20T18:16:20.516Z,23.29
2019-05-20T18:19:26.180Z,22.82
2019-05-20T18:22:31.952Z,23.20
2019-05-20T18:25:37.659Z,23.17
2019-05-20T18:28:43.325Z,23.15
2019-05-20T18:31:49.108Z,23.08
2019-05-20T18:34:54.868Z,23.06
2019-05-20T18:38:00.707Z,22.89
2019-05-20T18:41:06.497Z,22.85
2019-05-20T18:44:13.383Z,22.61
2019-05-20T18:47:19.171Z,22.63
2019-05-20T18:50:24.882Z,22.80
2019-05-20T18:53:30.670Z,22.63
2019-05-20T18:56:36.440Z,22.85
2019-05-20T18:59:42.242Z,23.01
2019-05-20T19:02:47.892Z,23.06
2019-05-20T19:05:53.564Z,23.04
2019-05-20T19:08:59.232Z,22.98
2019-05-20T19:12:05.074Z,23.04
2019-05-20T19:15:12.139Z,23.15
2019-05-20T19:18:17.900Z,23.06
2019-05-20T19:24:27.858Z,23.11
2019-05-20T19:27:33.567Z,23.20
2019-05-20T19:30:39.233Z,23.25
2019-05-20T19:33:44.967Z,23.37
2019-05-20T19:36:50.654Z,23.25
2019-05-20T19:40:05.956Z,23.31
2019-05-20T19:43:13.242Z,23.27
2019-05-20T19:46:18.962Z,23.23
2019-05-20T19:49:26.245Z,23.29
2019-05-20T19:52:32.131Z,23.13
2019-05-20T19:55:37.751Z,22.76
2019-05-20T19:58:46.461Z,22.69
2019-05-20T20:01:56.109Z,22.99
2019-05-20T20:05:11.908Z,22.99
2019-05-20T20:08:09.743Z,22.93
2019-05-20T20:11:15.512Z,22.78
2019-05-20T20:14:21.221Z,23.04
2019-05-20T20:17:27.019Z,23.05
2019-05-20T20:20:32.833Z,23.17
2019-05-20T20:23:38.634Z,23.13
2019-05-20T20:26:44.436Z,23.28
2019-05-20T20:29:50.138Z,23.05
2019-05-20T20:32:55.828Z,22.57
2019-05-20T20:36:01.475Z,22.55
2019-05-20T20:39:09.582Z,22.67
2019-05-20T20:42:15.285Z,22.08
2019-05-20T20:45:21.107Z,22.47
2019-05-20T20:48:26.772Z,22.21
2019-05-20T20:51:32.460Z,22.06
2019-05-20T20:54:38.244Z,22.18
2019-05-20T20:57:43.893Z,22.29
2019-05-20T21:00:49.783Z,22.22
2019-05-20T21:03:55.460Z,22.21
2019-05-20T21:07:01.198Z,22.06
2019-05-20T21:10:07.812Z,22.15
2019-05-20T21:13:15.126Z,22.05
2019-05-20T21:16:21.038Z,21.78
2019-05-20T21:19:26.836Z,21.90
2019-05-20T21:22:32.542Z,22.20
2019-05-20T21:25:38.471Z,21.63
2019-05-20T21:28:44.419Z,21.70
2019-05-20T21:31:50.095Z,21.45
2019-05-20T21:34:55.811Z,21.47
2019-05-20T21:38:01.524Z,21.23
2019-05-20T21:41:07.229Z,21.27
2019-05-20T21:44:17.272Z,21.27
2019-05-20T21:47:28.243Z,21.20
2019-05-20T21:50:33.918Z,21.51
2019-05-20T21:53:39.626Z,21.60
2019-05-20T21:56:45.376Z,21.25
2019-05-20T21:59:51.108Z,21.17
2019-05-20T22:02:57.406Z,21.44
2019-05-20T22:06:03.339Z,21.75
2019-05-20T22:09:09.183Z,21.48
2019-05-20T22:12:15.018Z,21.46
2019-05-20T22:15:20.938Z,21.63
2019-05-20T22:18:27.271Z,21.57
2019-05-20T22:21:45.108Z,21.79
2019-05-20T22:24:50.887Z,21.68
2019-05-20T22:27:56.605Z,21.53
2019-05-20T22:31:06.803Z,21.44
2019-05-20T22:34:13.764Z,21.28
2019-05-20T22:37:19.461Z,21.51
2019-05-20T22:40:25.142Z,21.69
2019-05-20T22:43:30.889Z,21.89
2019-05-20T22:46:36.611Z,22.00
2019-05-20T22:49:42.287Z,21.90
2019-05-20T22:52:50.472Z,21.78
2019-05-20T22:55:56.158Z,21.70
2019-05-20T22:59:01.854Z,21.47
2019-05-20T23:02:07.576Z,21.57
2019-05-20T23:05:13.644Z,21.40
2019-05-20T23:08:19.331Z,21.57
2019-05-20T23:11:25.009Z,21.34
2019-05-20T23:14:33.019Z,21.47
2019-05-20T23:17:38.688Z,21.53
2019-05-20T23:20:44.386Z,21.66
2019-05-20T23:23:50.057Z,21.66
2019-05-20T23:26:55.725Z,21.71
2019-05-20T23:30:01.385Z,21.70
2019-05-20T23:33:09.136Z,21.22
2019-05-20T23:36:15.030Z,21.23
2019-05-20T23:39:20.703Z,21.06
2019-05-20T23:42:26.391Z,21.38
2019-05-20T23:45:32.113Z,21.40
2019-05-20T23:48:37.876Z,21.20
2019-05-20T23:51:43.720Z,21.20
2019-05-20T23:54:52.188Z,21.06
2019-05-20T23:57:57.851Z,21.03
